sensor_id;sensor_type;location;lat;lon;timestamp;P1;durP1;ratioP1;P2;durP2;ratioP2
68457;SDS011;65384;52.016;5.428;2023-03-21T00:00:14;32.40;;;13.63;;
68457;SDS011;65384;52.016;5.428;2023-03-21T00:02:40;30.40;;;12.93;;
68457;SDS011;65384;52.016;5.428;2023-03-21T00:05:05;36.10;;;13.45;;
68457;SDS011;65384;52.016;5.428;2023-03-21T00:07:31;37.88;;;12.82;;
68457;SDS011;65384;52.016;5.428;2023-03-21T00:09:56;33.95;;;13.88;;
68457;SDS011;65384;52.016;5.428;2023-03-21T00:12:22;30.20;;;12.23;;
68457;SDS011;65384;52.016;5.428;2023-03-21T00:14:47;31.20;;;12.73;;
68457;SDS011;65384;52.016;5.428;2023-03-21T00:17:12;33.90;;;13.43;;
68457;SDS011;65384;52.016;5.428;2023-03-21T00:19:39;31.00;;;12.43;;
68457;SDS011;65384;52.016;5.428;2023-03-21T00:22:05;31.23;;;13.10;;
68457;SDS011;65384;52.016;5.428;2023-03-21T00:24:30;28.30;;;12.38;;
68457;SDS011;65384;52.016;5.428;2023-03-21T00:26:56;29.92;;;12.85;;
68457;SDS011;65384;52.016;5.428;2023-03-21T00:29:21;32.58;;;13.63;;
68457;SDS011;65384;52.016;5.428;2023-03-21T00:31:46;35.72;;;14.07;;
68457;SDS011;65384;52.016;5.428;2023-03-21T00:34:12;32.72;;;14.07;;
68457;SDS011;65384;52.016;5.428;2023-03-21T00:36:37;35.13;;;14.23;;
68457;SDS011;65384;52.016;5.428;2023-03-21T00:39:03;31.92;;;13.60;;
68457;SDS011;65384;52.016;5.428;2023-03-21T00:41:30;35.95;;;14.52;;
68457;SDS011;65384;52.016;5.428;2023-03-21T00:43:55;38.30;;;15.57;;
68457;SDS011;65384;52.016;5.428;2023-03-21T00:46:21;39.30;;;14.93;;
68457;SDS011;65384;52.016;5.428;2023-03-21T00:48:46;38.63;;;15.45;;
68457;SDS011;65384;52.016;5.428;2023-03-21T00:51:19;39.63;;;15.57;;
68457;SDS011;65384;52.016;5.428;2023-03-21T00:53:50;40.38;;;15.77;;
68457;SDS011;65384;52.016;5.428;2023-03-21T00:56:17;44.22;;;16.98;;
68457;SDS011;65384;52.016;5.428;2023-03-21T00:58:42;39.42;;;16.08;;
68457;SDS011;65384;52.016;5.428;2023-03-21T01:01:08;40.78;;;16.15;;
68457;SDS011;65384;52.016;5.428;2023-03-21T01:03:33;44.13;;;16.27;;
68457;SDS011;65384;52.016;5.428;2023-03-21T01:06:09;45.15;;;17.38;;
68457;SDS011;65384;52.016;5.428;2023-03-21T01:08:41;43.75;;;16.48;;
68457;SDS011;65384;52.016;5.428;2023-03-21T01:11:08;43.92;;;17.20;;
68457;SDS011;65384;52.016;5.428;2023-03-21T01:13:35;49.20;;;18.00;;
68457;SDS011;65384;52.016;5.428;2023-03-21T01:16:00;46.92;;;18.17;;
68457;SDS011;65384;52.016;5.428;2023-03-21T01:18:29;51.72;;;17.23;;
68457;SDS011;65384;52.016;5.428;2023-03-21T01:20:55;46.22;;;17.92;;
68457;SDS011;65384;52.016;5.428;2023-03-21T01:23:22;53.42;;;17.67;;
68457;SDS011;65384;52.016;5.428;2023-03-21T01:25:48;48.30;;;18.65;;
68457;SDS011;65384;52.016;5.428;2023-03-21T01:28:14;51.80;;;18.02;;
68457;SDS011;65384;52.016;5.428;2023-03-21T01:30:43;46.55;;;16.83;;
68457;SDS011;65384;52.016;5.428;2023-03-21T01:33:13;48.63;;;17.48;;
68457;SDS011;65384;52.016;5.428;2023-03-21T01:35:39;47.63;;;17.55;;
68457;SDS011;65384;52.016;5.428;2023-03-21T01:38:04;49.83;;;17.33;;
68457;SDS011;65384;52.016;5.428;2023-03-21T01:40:30;45.22;;;16.50;;
68457;SDS011;65384;52.016;5.428;2023-03-21T01:42:55;42.03;;;16.27;;
68457;SDS011;65384;52.016;5.428;2023-03-21T01:48:24;42.47;;;16.48;;
68457;SDS011;65384;52.016;5.428;2023-03-21T01:50:51;50.78;;;17.77;;
68457;SDS011;65384;52.016;5.428;2023-03-21T01:53:18;46.28;;;15.75;;
68457;SDS011;65384;52.016;5.428;2023-03-21T01:55:45;39.00;;;15.57;;
68457;SDS011;65384;52.016;5.428;2023-03-21T01:58:12;42.85;;;17.13;;
68457;SDS011;65384;52.016;5.428;2023-03-21T02:00:42;45.47;;;16.90;;
68457;SDS011;65384;52.016;5.428;2023-03-21T02:03:08;41.53;;;13.88;;
68457;SDS011;65384;52.016;5.428;2023-03-21T02:08:27;42.08;;;14.93;;
68457;SDS011;65384;52.016;5.428;2023-03-21T02:10:53;40.50;;;16.70;;
68457;SDS011;65384;52.016;5.428;2023-03-21T02:13:18;43.78;;;16.15;;
68457;SDS011;65384;52.016;5.428;2023-03-21T02:16:09;43.03;;;15.70;;
68457;SDS011;65384;52.016;5.428;2023-03-21T02:21:51;41.45;;;14.57;;
68457;SDS011;65384;52.016;5.428;2023-03-21T02:30:20;39.40;;;15.35;;
68457;SDS011;65384;52.016;5.428;2023-03-21T02:35:09;41.83;;;15.95;;
68457;SDS011;65384;52.016;5.428;2023-03-21T02:37:47;39.72;;;15.82;;
68457;SDS011;65384;52.016;5.428;2023-03-21T02:45:44;40.78;;;15.35;;
68457;SDS011;65384;52.016;5.428;2023-03-21T02:48:12;37.53;;;15.52;;
68457;SDS011;65384;52.016;5.428;2023-03-21T02:50:47;39.42;;;15.38;;
68457;SDS011;65384;52.016;5.428;2023-03-21T02:53:15;34.65;;;14.23;;
68457;SDS011;65384;52.016;5.428;2023-03-21T02:55:43;44.65;;;16.52;;
68457;SDS011;65384;52.016;5.428;2023-03-21T02:58:11;39.85;;;16.08;;
68457;SDS011;65384;52.016;5.428;2023-03-21T03:00:38;41.70;;;15.73;;
68457;SDS011;65384;52.016;5.428;2023-03-21T03:03:04;41.63;;;16.05;;
68457;SDS011;65384;52.016;5.428;2023-03-21T03:05:30;45.30;;;16.08;;
68457;SDS011;65384;52.016;5.428;2023-03-21T03:11:27;46.45;;;16.90;;
68457;SDS011;65384;52.016;5.428;2023-03-21T03:25:59;41.08;;;15.98;;
68457;SDS011;65384;52.016;5.428;2023-03-21T03:28:29;39.58;;;15.15;;
68457;SDS011;65384;52.016;5.428;2023-03-21T03:30:57;46.15;;;16.98;;
68457;SDS011;65384;52.016;5.428;2023-03-21T03:33:24;47.60;;;17.38;;
68457;SDS011;65384;52.016;5.428;2023-03-21T03:35:50;37.33;;;15.05;;
68457;SDS011;65384;52.016;5.428;2023-03-21T03:38:17;42.53;;;15.57;;
68457;SDS011;65384;52.016;5.428;2023-03-21T03:40:47;46.75;;;16.05;;
68457;SDS011;65384;52.016;5.428;2023-03-21T03:43:22;43.05;;;16.10;;
68457;SDS011;65384;52.016;5.428;2023-03-21T03:45:55;41.22;;;16.63;;
68457;SDS011;65384;52.016;5.428;2023-03-21T03:48:23;43.67;;;15.35;;
68457;SDS011;65384;52.016;5.428;2023-03-21T03:50:55;40.97;;;16.65;;
68457;SDS011;65384;52.016;5.428;2023-03-21T03:53:36;40.25;;;14.80;;
68457;SDS011;65384;52.016;5.428;2023-03-21T03:56:06;41.13;;;16.27;;
68457;SDS011;65384;52.016;5.428;2023-03-21T03:58:32;43.95;;;16.40;;
68457;SDS011;65384;52.016;5.428;2023-03-21T04:00:59;41.65;;;15.82;;
68457;SDS011;65384;52.016;5.428;2023-03-21T04:03:24;44.75;;;15.98;;
68457;SDS011;65384;52.016;5.428;2023-03-21T04:05:50;39.08;;;15.27;;
68457;SDS011;65384;52.016;5.428;2023-03-21T04:08:15;42.75;;;15.73;;
68457;SDS011;65384;52.016;5.428;2023-03-21T04:10:41;37.55;;;15.10;;
68457;SDS011;65384;52.016;5.428;2023-03-21T04:13:07;44.40;;;15.35;;
68457;SDS011;65384;52.016;5.428;2023-03-21T04:15:32;37.40;;;14.18;;
68457;SDS011;65384;52.016;5.428;2023-03-21T04:17:57;38.42;;;15.48;;
68457;SDS011;65384;52.016;5.428;2023-03-21T04:20:23;36.28;;;14.18;;
68457;SDS011;65384;52.016;5.428;2023-03-21T04:22:48;31.95;;;13.02;;
68457;SDS011;65384;52.016;5.428;2023-03-21T04:25:15;35.72;;;13.32;;
68457;SDS011;65384;52.016;5.428;2023-03-21T04:27:41;35.20;;;13.85;;
68457;SDS011;65384;52.016;5.428;2023-03-21T04:30:06;38.17;;;13.40;;
68457;SDS011;65384;52.016;5.428;2023-03-21T04:32:33;34.33;;;13.05;;
68457;SDS011;65384;52.016;5.428;2023-03-21T04:35:03;30.05;;;12.50;;
68457;SDS011;65384;52.016;5.428;2023-03-21T04:37:30;29.65;;;10.90;;
68457;SDS011;65384;52.016;5.428;2023-03-21T04:39:57;28.80;;;11.05;;
68457;SDS011;65384;52.016;5.428;2023-03-21T04:42:23;32.08;;;11.18;;
68457;SDS011;65384;52.016;5.428;2023-03-21T04:44:48;34.05;;;11.30;;
68457;SDS011;65384;52.016;5.428;2023-03-21T04:47:14;25.73;;;10.48;;
68457;SDS011;65384;52.016;5.428;2023-03-21T04:49:44;26.92;;;11.45;;
68457;SDS011;65384;52.016;5.428;2023-03-21T04:52:12;24.42;;;10.55;;
68457;SDS011;65384;52.016;5.428;2023-03-21T04:54:37;26.98;;;10.25;;
68457;SDS011;65384;52.016;5.428;2023-03-21T04:57:03;27.48;;;10.77;;
68457;SDS011;65384;52.016;5.428;2023-03-21T04:59:28;24.73;;;9.93;;
68457;SDS011;65384;52.016;5.428;2023-03-21T05:01:54;27.63;;;10.30;;
68457;SDS011;65384;52.016;5.428;2023-03-21T05:04:21;27.27;;;9.80;;
68457;SDS011;65384;52.016;5.428;2023-03-21T05:06:46;26.75;;;11.05;;
68457;SDS011;65384;52.016;5.428;2023-03-21T05:09:11;29.67;;;10.15;;
68457;SDS011;65384;52.016;5.428;2023-03-21T05:11:38;30.55;;;11.70;;
68457;SDS011;65384;52.016;5.428;2023-03-21T05:14:05;29.20;;;11.43;;
68457;SDS011;65384;52.016;5.428;2023-03-21T05:16:32;23.02;;;9.70;;
68457;SDS011;65384;52.016;5.428;2023-03-21T05:18:59;28.55;;;9.77;;
68457;SDS011;65384;52.016;5.428;2023-03-21T05:21:28;24.05;;;10.05;;
68457;SDS011;65384;52.016;5.428;2023-03-21T05:23:54;26.73;;;9.07;;
68457;SDS011;65384;52.016;5.428;2023-03-21T05:26:20;28.65;;;9.40;;
68457;SDS011;65384;52.016;5.428;2023-03-21T05:28:47;24.90;;;9.15;;
68457;SDS011;65384;52.016;5.428;2023-03-21T05:31:13;25.15;;;8.85;;
68457;SDS011;65384;52.016;5.428;2023-03-21T05:33:40;26.48;;;9.63;;
68457;SDS011;65384;52.016;5.428;2023-03-21T05:36:06;23.10;;;9.32;;
68457;SDS011;65384;52.016;5.428;2023-03-21T05:38:32;27.25;;;9.80;;
68457;SDS011;65384;52.016;5.428;2023-03-21T05:40:57;25.55;;;9.73;;
68457;SDS011;65384;52.016;5.428;2023-03-21T05:43:23;22.90;;;9.10;;
68457;SDS011;65384;52.016;5.428;2023-03-21T05:45:48;26.80;;;9.55;;
68457;SDS011;65384;52.016;5.428;2023-03-21T05:48:14;24.38;;;8.60;;
68457;SDS011;65384;52.016;5.428;2023-03-21T05:50:39;22.10;;;8.23;;
68457;SDS011;65384;52.016;5.428;2023-03-21T05:53:05;20.65;;;8.15;;
68457;SDS011;65384;52.016;5.428;2023-03-21T05:55:31;23.38;;;8.10;;
68457;SDS011;65384;52.016;5.428;2023-03-21T05:57:56;21.45;;;7.75;;
68457;SDS011;65384;52.016;5.428;2023-03-21T06:00:21;23.77;;;8.45;;
68457;SDS011;65384;52.016;5.428;2023-03-21T06:02:47;25.63;;;8.63;;
68457;SDS011;65384;52.016;5.428;2023-03-21T06:05:12;22.40;;;7.68;;
68457;SDS011;65384;52.016;5.428;2023-03-21T06:07:38;26.05;;;8.27;;
68457;SDS011;65384;52.016;5.428;2023-03-21T06:10:04;22.83;;;7.93;;
68457;SDS011;65384;52.016;5.428;2023-03-21T06:12:30;21.30;;;7.93;;
68457;SDS011;65384;52.016;5.428;2023-03-21T06:14:55;18.70;;;7.95;;
68457;SDS011;65384;52.016;5.428;2023-03-21T06:17:20;22.95;;;8.00;;
68457;SDS011;65384;52.016;5.428;2023-03-21T06:19:46;29.73;;;8.82;;
68457;SDS011;65384;52.016;5.428;2023-03-21T06:22:11;25.40;;;8.82;;
68457;SDS011;65384;52.016;5.428;2023-03-21T06:24:37;18.98;;;8.32;;
68457;SDS011;65384;52.016;5.428;2023-03-21T06:27:02;22.33;;;8.60;;
68457;SDS011;65384;52.016;5.428;2023-03-21T06:29:27;20.73;;;8.38;;
68457;SDS011;65384;52.016;5.428;2023-03-21T06:31:53;23.77;;;8.63;;
68457;SDS011;65384;52.016;5.428;2023-03-21T06:34:18;26.02;;;8.50;;
68457;SDS011;65384;52.016;5.428;2023-03-21T06:36:43;21.58;;;8.25;;
68457;SDS011;65384;52.016;5.428;2023-03-21T06:39:10;24.10;;;7.93;;
68457;SDS011;65384;52.016;5.428;2023-03-21T06:41:36;19.38;;;8.73;;
68457;SDS011;65384;52.016;5.428;2023-03-21T06:44:01;20.63;;;8.55;;
68457;SDS011;65384;52.016;5.428;2023-03-21T06:46:28;23.85;;;8.48;;
68457;SDS011;65384;52.016;5.428;2023-03-21T06:48:53;22.55;;;7.93;;
68457;SDS011;65384;52.016;5.428;2023-03-21T06:51:19;26.15;;;8.90;;
68457;SDS011;65384;52.016;5.428;2023-03-21T06:53:44;23.42;;;8.65;;
68457;SDS011;65384;52.016;5.428;2023-03-21T06:56:11;25.52;;;8.35;;
68457;SDS011;65384;52.016;5.428;2023-03-21T06:58:37;22.92;;;7.95;;
68457;SDS011;65384;52.016;5.428;2023-03-21T07:01:03;24.20;;;8.85;;
68457;SDS011;65384;52.016;5.428;2023-03-21T07:03:28;21.23;;;8.27;;
68457;SDS011;65384;52.016;5.428;2023-03-21T07:05:55;23.15;;;9.25;;
68457;SDS011;65384;52.016;5.428;2023-03-21T07:08:22;23.95;;;8.30;;
68457;SDS011;65384;52.016;5.428;2023-03-21T07:10:47;28.60;;;9.13;;
68457;SDS011;65384;52.016;5.428;2023-03-21T07:13:13;23.40;;;8.63;;
68457;SDS011;65384;52.016;5.428;2023-03-21T07:15:38;21.15;;;8.55;;
68457;SDS011;65384;52.016;5.428;2023-03-21T07:18:05;22.38;;;7.68;;
68457;SDS011;65384;52.016;5.428;2023-03-21T07:20:32;20.58;;;7.68;;
68457;SDS011;65384;52.016;5.428;2023-03-21T07:22:57;20.80;;;7.93;;
68457;SDS011;65384;52.016;5.428;2023-03-21T07:25:23;23.45;;;8.32;;
68457;SDS011;65384;52.016;5.428;2023-03-21T07:27:49;18.15;;;7.95;;
68457;SDS011;65384;52.016;5.428;2023-03-21T07:30:14;18.55;;;7.53;;
68457;SDS011;65384;52.016;5.428;2023-03-21T07:32:40;23.05;;;8.73;;
68457;SDS011;65384;52.016;5.428;2023-03-21T07:35:06;21.60;;;7.38;;
68457;SDS011;65384;52.016;5.428;2023-03-21T07:37:34;20.58;;;7.45;;
68457;SDS011;65384;52.016;5.428;2023-03-21T07:39:59;16.58;;;6.95;;
68457;SDS011;65384;52.016;5.428;2023-03-21T07:42:25;22.05;;;8.25;;
68457;SDS011;65384;52.016;5.428;2023-03-21T07:44:50;20.77;;;7.65;;
68457;SDS011;65384;52.016;5.428;2023-03-21T07:47:18;17.30;;;6.82;;
68457;SDS011;65384;52.016;5.428;2023-03-21T07:49:44;26.13;;;7.50;;
68457;SDS011;65384;52.016;5.428;2023-03-21T07:52:10;16.05;;;7.00;;
68457;SDS011;65384;52.016;5.428;2023-03-21T07:54:35;17.60;;;7.13;;
68457;SDS011;65384;52.016;5.428;2023-03-21T07:57:00;14.52;;;6.10;;
68457;SDS011;65384;52.016;5.428;2023-03-21T07:59:26;15.65;;;7.22;;
68457;SDS011;65384;52.016;5.428;2023-03-21T08:01:51;17.63;;;7.30;;
68457;SDS011;65384;52.016;5.428;2023-03-21T08:04:16;22.90;;;8.05;;
68457;SDS011;65384;52.016;5.428;2023-03-21T08:06:42;19.60;;;7.63;;
68457;SDS011;65384;52.016;5.428;2023-03-21T08:09:07;24.98;;;7.28;;
68457;SDS011;65384;52.016;5.428;2023-03-21T08:11:32;19.20;;;7.10;;
68457;SDS011;65384;52.016;5.428;2023-03-21T08:13:58;20.67;;;6.78;;
68457;SDS011;65384;52.016;5.428;2023-03-21T08:16:24;20.15;;;7.10;;
68457;SDS011;65384;52.016;5.428;2023-03-21T08:18:49;15.48;;;6.80;;
68457;SDS011;65384;52.016;5.428;2023-03-21T08:21:15;18.70;;;6.13;;
68457;SDS011;65384;52.016;5.428;2023-03-21T08:23:40;22.27;;;6.47;;
68457;SDS011;65384;52.016;5.428;2023-03-21T08:26:06;20.73;;;7.32;;
68457;SDS011;65384;52.016;5.428;2023-03-21T08:28:31;15.82;;;7.10;;
68457;SDS011;65384;52.016;5.428;2023-03-21T08:30:57;20.20;;;7.75;;
68457;SDS011;65384;52.016;5.428;2023-03-21T08:33:22;18.65;;;6.93;;
68457;SDS011;65384;52.016;5.428;2023-03-21T08:35:48;14.38;;;6.60;;
68457;SDS011;65384;52.016;5.428;2023-03-21T08:38:13;22.08;;;7.85;;
68457;SDS011;65384;52.016;5.428;2023-03-21T08:40:39;21.52;;;6.70;;
68457;SDS011;65384;52.016;5.428;2023-03-21T08:43:05;19.75;;;6.85;;
68457;SDS011;65384;52.016;5.428;2023-03-21T08:45:30;17.02;;;7.25;;
68457;SDS011;65384;52.016;5.428;2023-03-21T08:47:56;16.50;;;6.25;;
68457;SDS011;65384;52.016;5.428;2023-03-21T08:50:22;15.05;;;6.40;;
68457;SDS011;65384;52.016;5.428;2023-03-21T08:52:49;17.17;;;6.28;;
68457;SDS011;65384;52.016;5.428;2023-03-21T08:55:15;16.75;;;5.53;;
68457;SDS011;65384;52.016;5.428;2023-03-21T08:57:42;13.18;;;5.80;;
68457;SDS011;65384;52.016;5.428;2023-03-21T09:00:09;16.83;;;5.50;;
68457;SDS011;65384;52.016;5.428;2023-03-21T09:02:39;15.05;;;5.00;;
68457;SDS011;65384;52.016;5.428;2023-03-21T09:05:05;15.95;;;5.50;;
68457;SDS011;65384;52.016;5.428;2023-03-21T09:07:32;13.85;;;5.80;;
68457;SDS011;65384;52.016;5.428;2023-03-21T09:10:00;18.80;;;5.65;;
68457;SDS011;65384;52.016;5.428;2023-03-21T09:12:26;14.00;;;5.10;;
68457;SDS011;65384;52.016;5.428;2023-03-21T09:14:51;21.20;;;5.95;;
68457;SDS011;65384;52.016;5.428;2023-03-21T09:17:17;14.85;;;6.05;;
68457;SDS011;65384;52.016;5.428;2023-03-21T09:19:43;18.35;;;6.70;;
68457;SDS011;65384;52.016;5.428;2023-03-21T09:22:10;15.70;;;6.28;;
68457;SDS011;65384;52.016;5.428;2023-03-21T09:24:41;18.55;;;7.13;;
68457;SDS011;65384;52.016;5.428;2023-03-21T09:27:07;18.85;;;6.28;;
68457;SDS011;65384;52.016;5.428;2023-03-21T09:29:33;17.20;;;6.65;;
68457;SDS011;65384;52.016;5.428;2023-03-21T09:31:59;17.83;;;6.82;;
68457;SDS011;65384;52.016;5.428;2023-03-21T09:34:25;18.77;;;6.75;;
68457;SDS011;65384;52.016;5.428;2023-03-21T09:36:52;20.08;;;7.43;;
68457;SDS011;65384;52.016;5.428;2023-03-21T09:39:20;17.27;;;6.85;;
68457;SDS011;65384;52.016;5.428;2023-03-21T09:44:51;24.92;;;7.35;;
68457;SDS011;65384;52.016;5.428;2023-03-21T09:47:29;15.93;;;7.05;;
68457;SDS011;65384;52.016;5.428;2023-03-21T09:50:00;18.35;;;6.80;;
68457;SDS011;65384;52.016;5.428;2023-03-21T09:52:31;16.20;;;6.47;;
68457;SDS011;65384;52.016;5.428;2023-03-21T09:55:01;18.23;;;6.70;;
68457;SDS011;65384;52.016;5.428;2023-03-21T09:57:38;16.33;;;6.18;;
68457;SDS011;65384;52.016;5.428;2023-03-21T10:00:06;13.18;;;5.35;;
68457;SDS011;65384;52.016;5.428;2023-03-21T10:02:39;17.75;;;6.60;;
68457;SDS011;65384;52.016;5.428;2023-03-21T10:10:33;18.10;;;6.35;;
68457;SDS011;65384;52.016;5.428;2023-03-21T10:13:01;13.20;;;5.75;;
68457;SDS011;65384;52.016;5.428;2023-03-21T10:15:27;20.65;;;6.22;;
68457;SDS011;65384;52.016;5.428;2023-03-21T10:18:00;13.70;;;5.07;;
68457;SDS011;65384;52.016;5.428;2023-03-21T10:23:06;15.00;;;5.78;;
68457;SDS011;65384;52.016;5.428;2023-03-21T10:25:38;12.73;;;5.40;;
68457;SDS011;65384;52.016;5.428;2023-03-21T10:28:05;13.45;;;5.97;;
68457;SDS011;65384;52.016;5.428;2023-03-21T10:33:13;16.10;;;5.60;;
68457;SDS011;65384;52.016;5.428;2023-03-21T10:35:40;13.73;;;5.55;;
68457;SDS011;65384;52.016;5.428;2023-03-21T10:38:12;13.27;;;5.35;;
68457;SDS011;65384;52.016;5.428;2023-03-21T10:40:40;14.43;;;5.50;;
68457;SDS011;65384;52.016;5.428;2023-03-21T10:43:16;13.90;;;5.95;;
68457;SDS011;65384;52.016;5.428;2023-03-21T10:45:44;14.25;;;6.00;;
68457;SDS011;65384;52.016;5.428;2023-03-21T10:48:11;16.35;;;5.55;;
68457;SDS011;65384;52.016;5.428;2023-03-21T10:50:36;13.60;;;4.70;;
68457;SDS011;65384;52.016;5.428;2023-03-21T10:53:02;13.73;;;5.32;;
68457;SDS011;65384;52.016;5.428;2023-03-21T10:55:33;13.18;;;5.85;;
68457;SDS011;65384;52.016;5.428;2023-03-21T10:58:04;10.95;;;4.65;;
68457;SDS011;65384;52.016;5.428;2023-03-21T11:00:38;11.30;;;4.90;;
68457;SDS011;65384;52.016;5.428;2023-03-21T11:03:06;11.27;;;4.78;;
68457;SDS011;65384;52.016;5.428;2023-03-21T11:05:38;8.70;;;4.13;;
68457;SDS011;65384;52.016;5.428;2023-03-21T11:08:14;15.82;;;4.40;;
68457;SDS011;65384;52.016;5.428;2023-03-21T11:11:02;11.48;;;5.22;;
68457;SDS011;65384;52.016;5.428;2023-03-21T11:14:04;13.13;;;5.07;;
68457;SDS011;65384;52.016;5.428;2023-03-21T11:16:24;11.02;;;4.50;;
68457;SDS011;65384;52.016;5.428;2023-03-21T11:18:59;14.85;;;5.18;;
68457;SDS011;65384;52.016;5.428;2023-03-21T11:21:27;13.18;;;5.13;;
68457;SDS011;65384;52.016;5.428;2023-03-21T11:24:00;11.60;;;4.50;;
68457;SDS011;65384;52.016;5.428;2023-03-21T11:26:28;11.60;;;4.55;;
68457;SDS011;65384;52.016;5.428;2023-03-21T11:28:56;10.40;;;4.20;;
68457;SDS011;65384;52.016;5.428;2023-03-21T11:31:22;8.32;;;4.10;;
68457;SDS011;65384;52.016;5.428;2023-03-21T11:33:55;15.48;;;5.30;;
68457;SDS011;65384;52.016;5.428;2023-03-21T11:38:48;10.10;;;3.67;;
68457;SDS011;65384;52.016;5.428;2023-03-21T11:41:34;7.50;;;4.03;;
68457;SDS011;65384;52.016;5.428;2023-03-21T11:44:04;12.30;;;4.50;;
68457;SDS011;65384;52.016;5.428;2023-03-21T11:46:30;27.08;;;5.80;;
68457;SDS011;65384;52.016;5.428;2023-03-21T11:48:56;12.57;;;4.95;;
68457;SDS011;65384;52.016;5.428;2023-03-21T11:54:20;14.43;;;5.05;;
68457;SDS011;65384;52.016;5.428;2023-03-21T11:59:54;13.60;;;4.80;;
68457;SDS011;65384;52.016;5.428;2023-03-21T12:02:30;11.75;;;4.93;;
68457;SDS011;65384;52.016;5.428;2023-03-21T12:05:17;11.05;;;4.75;;
68457;SDS011;65384;52.016;5.428;2023-03-21T12:10:35;11.35;;;4.93;;
68457;SDS011;65384;52.016;5.428;2023-03-21T12:13:09;14.65;;;5.30;;
68457;SDS011;65384;52.016;5.428;2023-03-21T12:15:56;14.18;;;4.95;;
68457;SDS011;65384;52.016;5.428;2023-03-21T12:21:45;12.93;;;4.43;;
68457;SDS011;65384;52.016;5.428;2023-03-21T12:24:19;12.02;;;4.85;;
68457;SDS011;65384;52.016;5.428;2023-03-21T12:27:09;11.60;;;5.50;;
68457;SDS011;65384;52.016;5.428;2023-03-21T12:29:48;12.63;;;5.30;;
68457;SDS011;65384;52.016;5.428;2023-03-21T12:35:08;9.73;;;4.53;;
68457;SDS011;65384;52.016;5.428;2023-03-21T12:45:31;12.20;;;5.35;;
68457;SDS011;65384;52.016;5.428;2023-03-21T12:48:10;13.75;;;5.97;;
68457;SDS011;65384;52.016;5.428;2023-03-21T12:50:39;15.30;;;6.00;;
68457;SDS011;65384;52.016;5.428;2023-03-21T12:53:17;11.98;;;6.75;;
68457;SDS011;65384;52.016;5.428;2023-03-21T12:55:55;15.30;;;6.82;;
68457;SDS011;65384;52.016;5.428;2023-03-21T12:58:23;16.17;;;6.38;;
68457;SDS011;65384;52.016;5.428;2023-03-21T13:00:53;17.30;;;7.07;;
68457;SDS011;65384;52.016;5.428;2023-03-21T13:03:35;17.57;;;7.20;;
68457;SDS011;65384;52.016;5.428;2023-03-21T13:06:05;12.85;;;6.85;;
68457;SDS011;65384;52.016;5.428;2023-03-21T13:16:20;10.43;;;5.78;;
68457;SDS011;65384;52.016;5.428;2023-03-21T13:26:47;14.85;;;5.55;;
68457;SDS011;65384;52.016;5.428;2023-03-21T13:29:26;11.55;;;6.00;;
68457;SDS011;65384;52.016;5.428;2023-03-21T13:31:58;14.50;;;5.50;;
68457;SDS011;65384;52.016;5.428;2023-03-21T13:34:31;11.65;;;5.65;;
68457;SDS011;65384;52.016;5.428;2023-03-21T13:36:58;13.18;;;6.00;;
68457;SDS011;65384;52.016;5.428;2023-03-21T13:39:25;12.48;;;5.90;;
68457;SDS011;65384;52.016;5.428;2023-03-21T13:41:52;11.23;;;5.82;;
68457;SDS011;65384;52.016;5.428;2023-03-21T13:44:23;11.68;;;6.13;;
68457;SDS011;65384;52.016;5.428;2023-03-21T13:47:01;14.43;;;5.75;;
68457;SDS011;65384;52.016;5.428;2023-03-21T13:49:35;10.07;;;5.63;;
68457;SDS011;65384;52.016;5.428;2023-03-21T13:52:47;9.60;;;5.45;;
68457;SDS011;65384;52.016;5.428;2023-03-21T13:54:53;12.95;;;5.90;;
68457;SDS011;65384;52.016;5.428;2023-03-21T13:57:41;11.85;;;5.88;;
68457;SDS011;65384;52.016;5.428;2023-03-21T14:02:54;11.15;;;5.88;;
68457;SDS011;65384;52.016;5.428;2023-03-21T14:05:21;12.90;;;5.60;;
68457;SDS011;65384;52.016;5.428;2023-03-21T14:07:48;15.60;;;6.45;;
68457;SDS011;65384;52.016;5.428;2023-03-21T14:10:19;13.80;;;5.93;;
68457;SDS011;65384;52.016;5.428;2023-03-21T14:12:47;11.57;;;5.88;;
68457;SDS011;65384;52.016;5.428;2023-03-21T14:18:04;15.80;;;6.00;;
68457;SDS011;65384;52.016;5.428;2023-03-21T14:20:37;13.52;;;6.03;;
68457;SDS011;65384;52.016;5.428;2023-03-21T14:23:06;13.73;;;6.18;;
68457;SDS011;65384;52.016;5.428;2023-03-21T14:25:33;13.68;;;6.68;;
68457;SDS011;65384;52.016;5.428;2023-03-21T14:28:02;13.05;;;6.70;;
68457;SDS011;65384;52.016;5.428;2023-03-21T14:30:31;12.68;;;6.75;;
68457;SDS011;65384;52.016;5.428;2023-03-21T14:32:59;13.68;;;7.25;;
68457;SDS011;65384;52.016;5.428;2023-03-21T14:35:32;14.93;;;7.43;;
68457;SDS011;65384;52.016;5.428;2023-03-21T14:38:04;15.23;;;7.53;;
68457;SDS011;65384;52.016;5.428;2023-03-21T14:40:31;14.52;;;7.63;;
68457;SDS011;65384;52.016;5.428;2023-03-21T14:42:57;13.73;;;8.07;;
68457;SDS011;65384;52.016;5.428;2023-03-21T14:45:31;12.68;;;7.70;;
68457;SDS011;65384;52.016;5.428;2023-03-21T14:48:06;15.10;;;8.45;;
68457;SDS011;65384;52.016;5.428;2023-03-21T14:50:38;14.23;;;8.15;;
68457;SDS011;65384;52.016;5.428;2023-03-21T14:53:06;16.90;;;8.15;;
68457;SDS011;65384;52.016;5.428;2023-03-21T14:55:43;14.82;;;7.10;;
68457;SDS011;65384;52.016;5.428;2023-03-21T14:58:10;12.35;;;7.00;;
68457;SDS011;65384;52.016;5.428;2023-03-21T15:00:37;13.98;;;7.18;;
68457;SDS011;65384;52.016;5.428;2023-03-21T15:03:03;13.88;;;7.05;;
68457;SDS011;65384;52.016;5.428;2023-03-21T15:05:30;16.92;;;7.22;;
68457;SDS011;65384;52.016;5.428;2023-03-21T15:07:58;15.38;;;7.18;;
68457;SDS011;65384;52.016;5.428;2023-03-21T15:10:37;16.38;;;7.07;;
68457;SDS011;65384;52.016;5.428;2023-03-21T15:13:15;14.45;;;7.38;;
68457;SDS011;65384;52.016;5.428;2023-03-21T15:15:44;11.95;;;6.78;;
68457;SDS011;65384;52.016;5.428;2023-03-21T15:18:10;13.70;;;7.32;;
68457;SDS011;65384;52.016;5.428;2023-03-21T15:20:40;12.45;;;6.53;;
68457;SDS011;65384;52.016;5.428;2023-03-21T15:23:07;13.55;;;6.50;;
68457;SDS011;65384;52.016;5.428;2023-03-21T15:25:36;15.98;;;7.45;;
68457;SDS011;65384;52.016;5.428;2023-03-21T15:28:03;12.52;;;6.90;;
68457;SDS011;65384;52.016;5.428;2023-03-21T15:30:29;15.32;;;7.38;;
68457;SDS011;65384;52.016;5.428;2023-03-21T15:32:56;12.55;;;7.07;;
68457;SDS011;65384;52.016;5.428;2023-03-21T15:35:26;15.00;;;7.03;;
68457;SDS011;65384;52.016;5.428;2023-03-21T15:37:56;12.65;;;7.25;;
68457;SDS011;65384;52.016;5.428;2023-03-21T15:42:48;15.30;;;7.00;;
68457;SDS011;65384;52.016;5.428;2023-03-21T15:50:25;12.53;;;7.10;;
68457;SDS011;65384;52.016;5.428;2023-03-21T15:52:51;13.05;;;7.63;;
68457;SDS011;65384;52.016;5.428;2023-03-21T15:55:22;17.80;;;7.90;;
68457;SDS011;65384;52.016;5.428;2023-03-21T15:57:58;16.88;;;7.85;;
68457;SDS011;65384;52.016;5.428;2023-03-21T16:03:04;13.45;;;8.27;;
68457;SDS011;65384;52.016;5.428;2023-03-21T16:05:40;13.95;;;7.80;;
68457;SDS011;65384;52.016;5.428;2023-03-21T16:08:25;12.82;;;7.85;;
68457;SDS011;65384;52.016;5.428;2023-03-21T16:10:51;14.85;;;8.48;;
68457;SDS011;65384;52.016;5.428;2023-03-21T16:13:17;16.30;;;8.23;;
68457;SDS011;65384;52.016;5.428;2023-03-21T16:15:42;17.67;;;8.82;;
68457;SDS011;65384;52.016;5.428;2023-03-21T16:18:11;19.45;;;8.27;;
68457;SDS011;65384;52.016;5.428;2023-03-21T16:20:39;16.70;;;8.13;;
68457;SDS011;65384;52.016;5.428;2023-03-21T16:23:09;14.82;;;7.68;;
68457;SDS011;65384;52.016;5.428;2023-03-21T16:25:35;23.77;;;7.35;;